Time;durP1;ratioP1;P1;durP2;ratioP2;P2;SDS_P1;SDS_P2;PMS_P1;PMS_P2;Temp;Humidity;BMP_temperature;BMP_pressure;BME280_temperature;BME280_humidity;BME280_pressure;Samples;Min_cycle;Max_cycle;Signal;HPM_P1;HPM_P2
2023/03/31 00:00:29;;;;;;;5.72;1.40;;;12.30;97.30;;;;;;4910464;29;20107;-79
2023/03/31 05:02:39;;;;;;;7.28;2.60;;;11.30;99.90;;;;;;5393783;23;20055;-73
2023/03/31 05:05:05;;;;;;;7.90;2.47;;;11.30;99.90;;;;;;4944789;29;20055;-73
2023/03/31 05:07:31;;;;;;;7.30;2.35;;;11.30;99.90;;;;;;4945844;29;20038;-73
2023/03/31 05:09:56;;;;;;;5.78;2.60;;;11.30;99.90;;;;;;4939628;29;20034;-72
2023/03/31 05:12:22;;;;;;;7.15;2.67;;;11.40;99.90;;;;;;4940929;29;20032;-72
2023/03/31 05:14:47;;;;;;;7.13;2.38;;;11.50;99.90;;;;;;4945266;29;20039;-72
2023/03/31 05:17:13;;;;;;;5.63;2.38;;;11.50;99.90;;;;;;4946163;29;20126;-74
2023/03/31 05:19:39;;;;;;;5.38;2.60;;;11.50;99.90;;;;;;4923585;29;20083;-72
2023/03/31 05:22:05;;;;;;;7.60;2.45;;;11.50;99.90;;;;;;4945463;29;20403;-72
2023/03/31 05:24:30;;;;;;;5.57;2.55;;;11.50;99.90;;;;;;4945586;29;20035;-73
2023/03/31 05:26:56;;;;;;;5.13;2.65;;;11.40;99.90;;;;;;4944943;29;20082;-72
2023/03/31 05:29:23;;;;;;;7.43;2.83;;;11.40;99.90;;;;;;4945062;29;20047;-72
2023/03/31 05:31:49;;;;;;;7.63;3.10;;;11.30;99.90;;;;;;4945097;29;20047;-72
2023/03/31 05:34:15;;;;;;;6.75;3.03;;;11.20;99.90;;;;;;4945049;29;20380;-72
2023/03/31 05:36:42;;;;;;;8.50;3.20;;;11.00;99.90;;;;;;4940588;29;20083;-72
2023/03/31 05:39:08;;;;;;;8.25;3.10;;;10.90;99.90;;;;;;4944789;29;20035;-71
2023/03/31 05:41:34;;;;;;;9.95;3.47;;;10.80;99.90;;;;;;4924696;29;20055;-73
2023/03/31 05:44:00;;;;;;;12.50;3.45;;;10.70;99.90;;;;;;4942058;29;20214;-73
2023/03/31 05:46:27;;;;;;;8.95;3.13;;;10.60;99.90;;;;;;4945234;29;20103;-75
2023/03/31 05:48:53;;;;;;;8.57;3.33;;;10.60;99.90;;;;;;4926765;29;20047;-72
2023/03/31 05:51:18;;;;;;;9.13;3.45;;;10.60;99.90;;;;;;4944382;29;20016;-72
2023/03/31 05:53:44;;;;;;;10.25;4.82;;;10.60;99.90;;;;;;4925468;29;20302;-72
2023/03/31 05:56:11;;;;;;;10.05;4.05;;;10.50;99.90;;;;;;4944634;29;20083;-72
2023/03/31 05:58:37;;;;;;;9.82;3.60;;;10.50;99.90;;;;;;4944459;29;20108;-73
2023/03/31 06:01:06;;;;;;;7.13;3.85;;;10.50;99.90;;;;;;4944484;29;20031;-72
2023/03/31 06:03:36;;;;;;;10.88;4.25;;;10.50;99.90;;;;;;4963963;29;20050;-72
2023/03/31 06:06:04;;;;;;;8.23;4.10;;;10.50;99.90;;;;;;4963717;29;20035;-72
2023/03/31 06:08:30;;;;;;;10.83;4.37;;;10.50;99.90;;;;;;4963871;29;20039;-74
2023/03/31 06:10:56;;;;;;;10.55;3.38;;;10.50;99.90;;;;;;4963874;29;20439;-74
2023/03/31 06:13:23;;;;;;;7.80;3.45;;;10.50;99.90;;;;;;4946964;29;20054;-73
2023/03/31 06:15:56;;;;;;;9.60;3.90;;;10.50;99.90;;;;;;4957893;29;20213;-74
2023/03/31 06:18:22;;;;;;;10.98;3.60;;;10.50;99.90;;;;;;4958254;29;20040;-74
2023/03/31 06:20:48;;;;;;;10.93;4.53;;;10.60;99.90;;;;;;4948213;29;20082;-73
2023/03/31 06:23:14;;;;;;;9.73;3.67;;;10.50;99.90;;;;;;4957529;29;20050;-73
2023/03/31 06:25:40;;;;;;;10.02;4.20;;;10.60;99.90;;;;;;4944270;29;20019;-75
2023/03/31 06:28:06;;;;;;;8.90;4.05;;;10.60;99.90;;;;;;4961969;29;20113;-75
2023/03/31 06:30:32;;;;;;;8.15;3.80;;;10.70;99.90;;;;;;4959391;29;20230;-74
2023/03/31 06:33:04;;;;;;;10.38;4.25;;;10.70;99.90;;;;;;4959782;29;20047;-75
2023/03/31 06:35:30;;;;;;;7.63;3.75;;;10.70;99.90;;;;;;4939790;29;20313;-76
2023/03/31 06:37:56;;;;;;;8.77;3.83;;;10.70;99.90;;;;;;4962515;29;20101;-74
2023/03/31 06:40:22;;;;;;;8.55;3.80;;;10.60;99.90;;;;;;4945865;29;20035;-74
2023/03/31 06:42:48;;;;;;;10.63;3.88;;;10.60;99.90;;;;;;4963276;29;20154;-76
2023/03/31 06:45:13;;;;;;;7.65;3.78;;;10.50;99.90;;;;;;4927379;29;20046;-74
2023/03/31 06:47:40;;;;;;;9.77;4.18;;;10.50;99.90;;;;;;4944853;29;20154;-74
2023/03/31 06:50:08;;;;;;;9.43;4.32;;;10.40;99.90;;;;;;4922941;29;20079;-74
2023/03/31 06:52:34;;;;;;;;;;;10.40;99.90;;;;;;4953152;29;20039;-74
2023/03/31 06:55:00;;;;;;;;;;;10.40;99.90;;;;;;4954151;29;19946;-74
2023/03/31 06:57:26;;;;;;;;;;;10.50;99.90;;;;;;4961324;29;19906;-76
2023/03/31 06:59:52;;;;;;;;;;;10.40;99.90;;;;;;4961015;29;19910;-74
2023/03/31 07:02:20;;;;;;;;;;;10.40;99.90;;;;;;4959638;28;19950;-76
2023/03/31 07:04:45;;;;;;;;;;;10.40;99.90;;;;;;4958230;29;19910;-76
2023/03/31 07:07:11;;;;;;;;;;;10.50;99.90;;;;;;4964320;29;20210;-76
2023/03/31 07:09:36;;;;;;;;;;;10.50;99.90;;;;;;4947101;29;20655;-74
2023/03/31 07:12:04;;;;;;;;;;;10.50;99.90;;;;;;4964611;29;19911;-76
2023/03/31 07:14:30;;;;;;;;;;;10.50;99.90;;;;;;4964923;29;19906;-74
2023/03/31 07:16:58;;;;;;;;;;;10.50;99.90;;;;;;4965751;29;20263;-77
2023/03/31 07:19:24;;;;;;;;;;;10.60;99.90;;;;;;4950783;29;19906;-75
2023/03/31 07:22:01;;;;;;;;;;;10.60;99.90;;;;;;4952420;29;19962;-74
2023/03/31 07:24:30;;;;;;;;;;;10.60;99.90;;;;;;4934989;29;19986;-73
2023/03/31 07:27:05;;;;;;;;;;;10.70;99.90;;;;;;4943923;29;19910;-76
2023/03/31 07:29:43;;;;;;;;;;;10.90;99.90;;;;;;4932757;29;19906;-75
2023/03/31 07:32:09;;;;;;;;;;;10.90;99.90;;;;;;4933684;29;20239;-74
2023/03/31 07:34:35;;;;;;;;;;;11.00;99.90;;;;;;4963655;29;19906;-76
2023/03/31 07:37:03;;;;;;;;;;;11.10;99.90;;;;;;4929959;29;19921;-77
2023/03/31 07:39:28;;;;;;;;;;;11.10;99.90;;;;;;4943813;29;19914;-74
2023/03/31 07:41:57;;;;;;;;;;;11.20;99.90;;;;;;4963921;29;19906;-76
2023/03/31 07:44:23;;;;;;;;;;;11.10;99.90;;;;;;4964316;29;19906;-76
2023/03/31 07:46:49;;;;;;;;;;;11.20;99.90;;;;;;4947213;29;19914;-75
2023/03/31 07:49:15;;;;;;;;;;;11.20;99.90;;;;;;4964107;29;20699;-75
2023/03/31 07:51:43;;;;;;;;;;;11.40;99.90;;;;;;4963210;29;19957;-75
2023/03/31 07:54:36;;;;;;;;;;;11.50;99.90;;;;;;4944021;29;19929;-75
2023/03/31 07:57:03;;;;;;;;;;;11.50;99.90;;;;;;4952104;29;20136;-77
2023/03/31 07:59:29;;;;;;;;;;;11.60;99.90;;;;;;4963941;29;20210;-74
2023/03/31 08:01:54;;;;;;;;;;;11.70;99.90;;;;;;4962318;29;19918;-75
2023/03/31 08:04:35;;;;;;;;;;;11.70;99.90;;;;;;4958243;29;19913;-74
2023/03/31 08:07:01;;;;;;;;;;;11.70;99.90;;;;;;4964479;29;19906;-75
2023/03/31 08:09:26;;;;;;;;;;;11.70;99.90;;;;;;4956447;29;19987;-74
2023/03/31 08:11:52;;;;;;;;;;;11.70;99.90;;;;;;4963334;29;19925;-76
2023/03/31 08:14:21;;;;;;;;;;;11.80;99.90;;;;;;4961726;28;19918;-74
2023/03/31 08:16:46;;;;;;;;;;;11.90;99.90;;;;;;4961684;29;19973;-73
2023/03/31 08:19:12;;;;;;;;;;;12.10;99.90;;;;;;4963244;29;19908;-72
2023/03/31 08:21:37;;;;;;;;;;;12.30;99.90;;;;;;4948314;29;19969;-74
2023/03/31 08:24:04;;;;;;;;;;;12.30;99.90;;;;;;4963013;29;20026;-73
2023/03/31 08:26:31;;;;;;;;;;;12.50;99.90;;;;;;4938067;29;19993;-72
2023/03/31 08:28:57;;;;;;;;;;;12.50;99.90;;;;;;4956656;29;19906;-75
2023/03/31 08:31:27;;;;;;;;;;;12.60;99.90;;;;;;4956501;29;19907;-74
2023/03/31 08:33:53;;;;;;;;;;;12.70;99.90;;;;;;4948006;29;19907;-72
2023/03/31 08:36:19;;;;;;;;;;;12.70;99.90;;;;;;4953730;29;19996;-74
2023/03/31 08:38:46;;;;;;;;;;;12.80;99.90;;;;;;4948806;29;19921;-73
2023/03/31 08:41:24;;;;;;;;;;;12.80;99.90;;;;;;4947759;29;19979;-72
2023/03/31 08:43:51;;;;;;;;;;;13.00;99.90;;;;;;4945786;29;20100;-74
2023/03/31 08:46:18;;;;;;;;;;;13.20;99.90;;;;;;4954329;29;19914;-77
2023/03/31 08:48:47;;;;;;;;;;;13.20;99.90;;;;;;4950190;29;20195;-75
2023/03/31 08:51:17;;;;;;;;;;;13.30;99.90;;;;;;4959070;29;19917;-75
2023/03/31 08:53:47;;;;;;;;;;;13.40;99.90;;;;;;4960970;29;19978;-73
2023/03/31 08:56:16;;;;;;;;;;;13.60;99.90;;;;;;4963641;29;19906;-75
2023/03/31 08:58:48;;;;;;;;;;;13.80;99.90;;;;;;4964538;29;20255;-76
2023/03/31 09:01:15;;;;;;;;;;;14.00;99.90;;;;;;4942672;29;19913;-75
2023/03/31 09:03:47;;;;;;;;;;;14.00;99.90;;;;;;4946564;29;19915;-74
2023/03/31 09:06:17;;;;;;;;;;;14.10;99.90;;;;;;4965435;29;19910;-76
2023/03/31 09:08:43;;;;;;;;;;;14.30;99.90;;;;;;4965284;29;19914;-74
2023/03/31 09:11:10;;;;;;;;;;;14.30;99.90;;;;;;4955416;29;19907;-74
2023/03/31 09:13:39;;;;;;;;;;;14.50;99.90;;;;;;4950279;29;19989;-74
2023/03/31 09:16:13;;;;;;;;;;;14.60;99.90;;;;;;4964452;29;19969;-74
2023/03/31 09:18:42;;;;;;;;;;;14.60;99.90;;;;;;4965104;29;19954;-75
2023/03/31 09:21:20;;;;;;;;;;;14.70;99.60;;;;;;4964104;29;19907;-74
2023/03/31 09:23:49;;;;;;;;;;;14.90;99.30;;;;;;4939155;29;20215;-76
2023/03/31 09:26:22;;;;;;;;;;;15.10;97.80;;;;;;4955859;29;20104;-75
2023/03/31 09:28:49;;;;;;;;;;;15.20;97.00;;;;;;4948937;29;19917;-75
2023/03/31 09:31:16;;;;;;;;;;;15.40;95.80;;;;;;4960871;29;19996;-73
2023/03/31 09:33:46;;;;;;;;;;;15.60;94.80;;;;;;4945591;29;19903;-74
2023/03/31 09:36:14;;;;;;;;;;;15.60;94.60;;;;;;4948693;29;19961;-73
2023/03/31 09:38:41;;;;;;;;;;;15.70;94.00;;;;;;4950088;29;19907;-76
2023/03/31 09:41:07;;;;;;;;;;;15.90;93.50;;;;;;4945148;29;19911;-75
2023/03/31 09:43:37;;;;;;;;;;;15.80;93.20;;;;;;4945748;29;19906;-75
2023/03/31 09:46:08;;;;;;;;;;;15.70;93.70;;;;;;4947370;29;20248;-75
2023/03/31 09:48:40;;;;;;;;;;;15.60;93.50;;;;;;4963767;29;19934;-74
2023/03/31 09:51:13;;;;;;;;;;;15.50;94.10;;;;;;4963929;29;19969;-75
2023/03/31 09:53:46;;;;;;;;;;;15.40;93.40;;;;;;4933953;29;19907;-75
2023/03/31 09:56:30;;;;;;;;;;;15.60;93.50;;;;;;4944960;29;19923;-74
2023/03/31 09:59:15;;;;;;;;;;;15.80;93.10;;;;;;4955909;29;20216;-75
2023/03/31 10:01:44;;;;;;;;;;;16.00;91.10;;;;;;4953033;29;20181;-74
2023/03/31 10:04:15;;;;;;;;;;;16.10;91.80;;;;;;4950887;29;19918;-73
2023/03/31 10:06:41;;;;;;;;;;;16.30;91.70;;;;;;4963919;29;19932;-73
2023/03/31 10:09:09;;;;;;;;;;;16.40;90.80;;;;;;4960490;29;19941;-76
2023/03/31 10:11:38;;;;;;;;;;;16.40;89.30;;;;;;4946995;29;19941;-76
2023/03/31 10:14:09;;;;;;;;;;;16.40;89.60;;;;;;4961465;29;19925;-75
2023/03/31 10:16:54;;;;;;;;;;;16.20;90.30;;;;;;4952421;29;20096;-71
2023/03/31 10:19:21;;;;;;;;;;;16.10;90.00;;;;;;4947133;29;19914;-74
2023/03/31 10:21:47;;;;;;;;;;;16.00;89.90;;;;;;4957410;29;19906;-73
2023/03/31 10:24:17;;;;;;;;;;;15.90;89.60;;;;;;4955154;29;19907;-73
2023/03/31 10:26:44;;;;;;;;;;;16.10;90.20;;;;;;4963797;29;19906;-74
2023/03/31 10:29:11;;;;;;;;;;;16.10;88.80;;;;;;4944708;29;19922;-74
2023/03/31 10:31:37;;;;;;;;;;;16.10;88.10;;;;;;4963832;29;19906;-72
2023/03/31 10:34:05;;;;;;;;;;;16.40;86.50;;;;;;4963106;29;19907;-74
2023/03/31 10:36:30;;;;;;;;;;;16.60;86.40;;;;;;4963774;29;19907;-73
2023/03/31 10:38:56;;;;;;;;;;;16.80;84.50;;;;;;4952468;29;19916;-72
2023/03/31 10:41:26;;;;;;;;;;;17.00;85.10;;;;;;4966024;29;19912;-74
2023/03/31 10:43:56;;;;;;;;;;;17.00;84.60;;;;;;4953407;29;20193;-77
2023/03/31 10:46:41;;;;;;;;;;;17.20;83.10;;;;;;4948912;29;19950;-79
2023/03/31 10:49:14;;;;;;;;;;;17.30;81.60;;;;;;4960847;29;19906;-75
2023/03/31 10:51:47;;;;;;;;;;;17.40;80.70;;;;;;4955073;29;19907;-74
2023/03/31 10:54:13;;;;;;;;;;;17.30;81.80;;;;;;4966093;29;20188;-74
2023/03/31 10:56:40;;;;;;;;;;;17.40;80.70;;;;;;4955779;29;19915;-72
2023/03/31 10:59:06;;;;;;;;;;;17.70;80.00;;;;;;4959208;29;20096;-72
2023/03/31 11:01:50;;;;;;;;;;;18.00;78.40;;;;;;4966182;29;19906;-73
2023/03/31 11:04:35;;;;;;;;;;;18.20;78.40;;;;;;4948183;29;19907;-74
2023/03/31 11:07:15;;;;;;;;;;;18.40;76.70;;;;;;4949007;29;20196;-74
2023/03/31 11:09:41;;;;;;;;;;;18.40;75.90;;;;;;4947959;29;19970;-74
2023/03/31 11:12:18;;;;;;;;;;;18.00;75.60;;;;;;4952075;29;20179;-76
2023/03/31 11:15:01;;;;;;;;;;;17.50;77.50;;;;;;4963067;29;19906;-73
2023/03/31 11:17:45;;;;;;;;;;;17.20;77.90;;;;;;4954537;29;19918;-73
2023/03/31 11:20:14;;;;;;;;;;;16.70;86.90;;;;;;4956887;29;20015;-75
2023/03/31 11:22:40;;;;;;;;;;;15.60;90.90;;;;;;4957138;29;19907;-74
2023/03/31 11:25:05;;;;;;;;;;;14.30;98.70;;;;;;4951830;29;20160;-77
2023/03/31 11:27:31;;;;;;;;;;;12.70;99.90;;;;;;4941907;29;19911;-77
2023/03/31 11:29:56;;;;;;;;;;;10.10;99.90;;;;;;4965860;29;19913;-76
2023/03/31 11:32:40;;;;;;;;;;;9.40;99.90;;;;;;4954997;29;19906;-76
2023/03/31 11:35:06;;;;;;;;;;;8.70;99.90;;;;;;4963131;29;19965;-76
2023/03/31 11:37:45;;;;;;;;;;;8.50;99.90;;;;;;4959263;29;20077;-75
2023/03/31 11:40:34;;;;;;;;;;;8.30;99.90;;;;;;4963726;29;20192;-76
2023/03/31 11:43:06;;;;;;;;;;;8.40;99.90;;;;;;4948725;29;19981;-76
2023/03/31 11:45:38;;;;;;;;;;;8.40;99.90;;;;;;4962871;29;19918;-72
2023/03/31 11:48:09;;;;;;;;;;;8.50;99.90;;;;;;4957212;29;19906;-73
2023/03/31 11:50:38;;;;;;;;;;;8.60;99.90;;;;;;4964425;28;20247;-74
2023/03/31 11:53:15;;;;;;;;;;;8.60;99.90;;;;;;4969049;29;19917;-74
2023/03/31 11:55:42;;;;;;;;;;;8.80;99.90;;;;;;4948308;29;19910;-74
2023/03/31 11:58:15;;;;;;;;;;;8.90;99.90;;;;;;4958102;29;20210;-74
2023/03/31 12:00:42;;;;;;;;;;;9.00;99.90;;;;;;4935772;29;20185;-75
2023/03/31 12:03:20;;;;;;;;;;;9.20;99.90;;;;;;4961509;29;19949;-72
2023/03/31 12:05:55;;;;;;;;;;;9.40;99.90;;;;;;4962169;29;19914;-72
2023/03/31 12:08:23;;;;;;;;;;;9.80;99.90;;;;;;4947307;29;19913;-76
2023/03/31 12:10:53;;;;;;;;;;;10.20;99.90;;;;;;4938362;29;20168;-76
2023/03/31 12:13:19;;;;;;;;;;;11.10;99.90;;;;;;4952297;29;19906;-76
2023/03/31 12:15:50;;;;;;;;;;;11.90;99.90;;;;;;4951096;29;20240;-76
2023/03/31 12:18:24;;;;;;;;;;;12.40;99.90;;;;;;4915055;29;19915;-76
2023/03/31 12:20:58;;;;;;;;;;;13.40;99.90;;;;;;4963952;29;19980;-74
2023/03/31 12:23:26;;;;;;;;;;;13.70;99.90;;;;;;4966496;29;20100;-72
2023/03/31 12:25:55;;;;;;;;;;;13.10;99.90;;;;;;4956775;29;19929;-75
2023/03/31 12:28:21;;;;;;;;;;;12.90;99.90;;;;;;4966035;29;19914;-76
2023/03/31 12:30:47;;;;;;;;;;;12.80;99.90;;;;;;4953507;29;20184;-73
2023/03/31 12:33:40;;;;;;;;;;;13.20;99.90;;;;;;4949220;29;20541;-76
2023/03/31 12:36:25;;;;;;;;;;;13.60;99.90;;;;;;4944745;29;19906;-75
2023/03/31 12:38:56;;;;;;;;;;;15.20;99.90;;;;;;4946931;29;20200;-73
2023/03/31 12:41:39;;;;;;;;;;;16.60;93.30;;;;;;4963224;29;19913;-72
2023/03/31 12:44:24;;;;;;;;;;;17.20;90.70;;;;;;4960152;29;19962;-71
2023/03/31 12:46:57;;;;;;;;;;;18.00;88.80;;;;;;4958267;29;20108;-71
2023/03/31 12:49:49;;;;;;;;;;;19.60;86.00;;;;;;4962590;29;20207;-77
2023/03/31 12:52:14;;;;;;;;;;;20.30;80.60;;;;;;4957376;29;19918;-73
2023/03/31 12:54:54;;;;;;;;;;;20.00;78.60;;;;;;4950804;29;19953;-71
2023/03/31 12:57:22;;;;;;;;;;;20.30;79.40;;;;;;4955803;29;19954;-73
2023/03/31 13:00:17;;;;;;;;;;;21.30;75.20;;;;;;4954637;29;20042;-73
2023/03/31 13:02:43;;;;;;;;;;;21.50;74.90;;;;;;4953902;29;19983;-72
2023/03/31 13:05:27;;;;;;;;;;;21.50;75.20;;;;;;4963786;29;19918;-72
2023/03/31 13:07:53;;;;;;;;;;;21.50;72.60;;;;;;4961623;29;19906;-73
2023/03/31 13:10:26;;;;;;;;;;;21.50;74.00;;;;;;4961196;29;19906;-73
2023/03/31 13:12:56;;;;;;;;;;;21.40;72.10;;;;;;4946178;29;19906;-72
2023/03/31 13:15:23;;;;;;;;;;;20.60;72.00;;;;;;4956546;29;19949;-74
2023/03/31 13:17:58;;;;;;;;;;;19.30;75.10;;;;;;4946729;29;19910;-71
2023/03/31 13:20:34;;;;;;;;;;;17.60;85.50;;;;;;4946310;29;19977;-74
2023/03/31 13:23:06;;;;;;;;;;;16.10;92.30;;;;;;4960949;29;20100;-71
2023/03/31 13:25:36;;;;;;;;;;;14.80;95.90;;;;;;4960515;29;19996;-71
2023/03/31 13:28:22;;;;;;;;;;;13.60;97.10;;;;;;4956998;29;20196;-71
2023/03/31 13:31:00;;;;;;;;;;;12.90;99.90;;;;;;4933900;29;19906;-70
2023/03/31 13:33:26;;;;;;;;;;;12.10;99.90;;;;;;4959193;29;19910;-73
2023/03/31 13:36:07;;;;;;;;;;;11.80;99.90;;;;;;4963250;29;20207;-71
2023/03/31 13:38:55;;;;;;;;;;;11.60;99.90;;;;;;4956797;29;19977;-71
2023/03/31 13:41:33;;;;;;;;;;;11.70;99.90;;;;;;4958418;29;19907;-71
2023/03/31 13:44:15;;;;;;;;;;;11.70;99.90;;;;;;4944891;29;19910;-76
2023/03/31 13:46:49;;;;;;;;;;;11.80;99.90;;;;;;4945521;29;20025;-72
2023/03/31 13:49:34;;;;;;;;;;;11.70;99.90;;;;;;4960765;29;20148;-74
2023/03/31 13:52:03;;;;;;;;;;;11.40;99.90;;;;;;4963335;29;19910;-71
2023/03/31 13:54:43;;;;;;;;;;;10.90;99.90;;;;;;4962651;29;19929;-72
2023/03/31 13:57:18;;;;;;;;;;;10.70;99.90;;;;;;4947960;29;19918;-72
2023/03/31 14:00:16;;;;;;;;;;;10.40;99.90;;;;;;4950579;29;19949;-74
2023/03/31 14:02:46;;;;;;;;;;;10.30;99.90;;;;;;4910671;29;19914;-74
2023/03/31 14:05:45;;;;;;;;;;;10.30;99.90;;;;;;4960848;29;19929;-72
2023/03/31 14:08:30;;;;;;;;;;;10.20;99.90;;;;;;4920554;29;19962;-75
2023/03/31 14:11:14;;;;;;;;;;;9.60;99.90;;;;;;4961393;29;19912;-78
2023/03/31 14:13:39;;;;;;;;;;;9.60;99.90;;;;;;4946559;29;19907;-76
2023/03/31 14:16:08;;;;;;;;;;;9.80;99.90;;;;;;4947274;29;19909;-77
2023/03/31 14:18:36;;;;;;;;;;;10.90;99.90;;;;;;4962180;29;19906;-73
2023/03/31 14:21:05;;;;;;;;;;;12.70;99.90;;;;;;4959796;29;19912;-75
2023/03/31 14:23:48;;;;;;;;;;;14.40;99.90;;;;;;4954427;29;19977;-73
2023/03/31 14:26:17;;;;;;;;;;;15.90;99.90;;;;;;4957893;29;20541;-72
2023/03/31 14:28:46;;;;;;;;;;;17.40;96.00;;;;;;4957617;29;19906;-70
2023/03/31 14:31:20;;;;;;;;;;;18.50;94.60;;;;;;4944657;29;20088;-71
2023/03/31 14:33:48;;;;;;;;;;;19.20;90.60;;;;;;4964395;29;19913;-73
2023/03/31 14:36:20;;;;;;;;;;;18.20;90.50;;;;;;4959155;29;19913;-71
2023/03/31 14:38:46;;;;;;;;;;;17.00;89.80;;;;;;4961366;29;19986;-71
2023/03/31 14:41:18;;;;;;;;;;;16.90;90.80;;;;;;4947346;29;19913;-72
2023/03/31 14:43:49;;;;;;;;;;;17.50;90.60;;;;;;4963344;29;19934;-73
2023/03/31 14:46:18;;;;;;;;;;;18.10;86.80;;;;;;4946769;29;19920;-71
2023/03/31 14:48:46;;;;;;;;;;;18.30;86.00;;;;;;4964077;29;19914;-72
2023/03/31 14:51:15;;;;;;;;;;;18.80;86.00;;;;;;4964448;29;19906;-73
2023/03/31 14:53:44;;;;;;;;;;;19.80;81.70;;;;;;4963974;29;19907;-71
2023/03/31 14:56:19;;;;;;;;;;;19.50;82.60;;;;;;4963446;29;19912;-72
2023/03/31 14:58:50;;;;;;;;;;;19.10;82.30;;;;;;4945648;29;21329;-73
2023/03/31 15:01:17;;;;;;;;;;;19.30;83.00;;;;;;4963030;28;19906;-71
2023/03/31 15:03:44;;;;;;;;;;;19.40;81.60;;;;;;4961923;29;20104;-72
2023/03/31 15:06:10;;;;;;;;;;;19.40;79.20;;;;;;4944727;29;19977;-73
2023/03/31 15:08:36;;;;;;;;;;;19.70;81.60;;;;;;4944218;29;20133;-72
2023/03/31 15:11:04;;;;;;;;;;;21.10;79.40;;;;;;4931130;29;20138;-72
2023/03/31 15:13:36;;;;;;;;;;;21.60;74.40;;;;;;4946387;29;21104;-70
2023/03/31 15:16:20;;;;;;;;;;;21.80;76.30;;;;;;4963651;29;19911;-72
2023/03/31 15:18:46;;;;;;;;;;;21.10;74.60;;;;;;4963743;29;19913;-70
2023/03/31 15:21:22;;;;;;;;;;;20.40;76.10;;;;;;4963321;29;20096;-70
2023/03/31 15:23:52;;;;;;;;;;;19.50;77.70;;;;;;4963795;28;19918;-73
2023/03/31 15:26:19;;;;;;;;;;;19.00;80.40;;;;;;4966530;29;20223;-71
2023/03/31 15:28:49;;;;;;;;;;;18.90;79.40;;;;;;4964136;29;19942;-70
2023/03/31 15:31:15;;;;;;;;;;;18.40;80.10;;;;;;4957291;29;19989;-72
2023/03/31 15:33:41;;;;;;;;;;;18.80;79.40;;;;;;4953649;29;19914;-72
2023/03/31 15:36:07;;;;;;;;;;;19.20;78.80;;;;;;4960913;29;20001;-72
2023/03/31 15:38:32;;;;;;;;;;;20.40;76.90;;;;;;4964709;29;19906;-72
2023/03/31 15:40:59;;;;;;;;;;;20.10;76.00;;;;;;4959681;29;19907;-71
2023/03/31 15:43:27;;;;;;;;;;;19.50;75.80;;;;;;4956066;29;19906;-73
2023/03/31 15:45:57;;;;;;;;;;;18.60;79.10;;;;;;4942434;29;19915;-74
2023/03/31 15:48:22;;;;;;;;;;;17.30;81.90;;;;;;4949698;29;19907;-72
2023/03/31 15:50:49;;;;;;;;;;;16.90;84.00;;;;;;4947944;29;19911;-75
2023/03/31 15:53:23;;;;;;;;;;;16.10;85.80;;;;;;4959297;29;19906;-73
2023/03/31 15:55:52;;;;;;;;;;;15.30;88.20;;;;;;4965860;29;19913;-72
2023/03/31 15:58:18;;;;;;;;;;;15.20;89.20;;;;;;4965954;29;19907;-72
2023/03/31 16:00:51;;;;;;;;;;;14.90;90.20;;;;;;4965939;29;19914;-71
2023/03/31 16:03:28;;;;;;;;;;;14.80;90.10;;;;;;4960662;29;19922;-72
2023/03/31 16:05:57;;;;;;;;;;;14.70;89.80;;;;;;4962480;29;19941;-71
2023/03/31 16:08:36;;;;;;;;;;;14.40;90.50;;;;;;4937996;29;20192;-73
2023/03/31 16:11:06;;;;;;;;;;;14.30;90.60;;;;;;4964511;29;20129;-75
2023/03/31 16:13:32;;;;;;;;;;;14.10;90.60;;;;;;4965413;29;19945;-75
2023/03/31 16:16:01;;;;;;;;;;;14.00;91.00;;;;;;4965849;29;19906;-74
2023/03/31 16:18:27;;;;;;;;;;;13.90;91.60;;;;;;4947276;29;19910;-72
2023/03/31 16:20:54;;;;;;;;;;;13.90;91.70;;;;;;4965459;29;19954;-73
2023/03/31 16:23:22;;;;;;;;;;;13.80;91.00;;;;;;4965104;29;19915;-73
2023/03/31 16:25:48;;;;;;;;;;;13.60;91.30;;;;;;4959123;29;19946;-73
2023/03/31 16:28:15;;;;;;;;;;;13.40;91.60;;;;;;4963324;29;19918;-74
2023/03/31 16:30:41;;;;;;;;;;;13.40;92.10;;;;;;4964783;29;19907;-72
2023/03/31 16:33:08;;;;;;;;;;;13.30;91.90;;;;;;4955481;29;19907;-74
2023/03/31 16:35:38;;;;;;;;;;;13.20;92.10;;;;;;4948024;29;19906;-73
2023/03/31 16:38:08;;;;;;;;;;;13.10;92.20;;;;;;4954441;29;19907;-73
2023/03/31 16:40:37;;;;;;;;;;;13.00;93.90;;;;;;4936430;29;19907;-73
2023/03/31 16:43:07;;;;;;;;;;;12.80;94.30;;;;;;4965837;29;19949;-73
2023/03/31 16:45:33;;;;;;;;;;;12.60;94.10;;;;;;4947174;29;19906;-72
2023/03/31 16:47:58;;;;;;;;;;;12.30;94.60;;;;;;4962507;29;19958;-72
2023/03/31 16:50:24;;;;;;;;;;;12.30;94.80;;;;;;4947741;29;20112;-76
2023/03/31 16:52:50;;;;;;;;;;;12.20;94.70;;;;;;4946485;29;19913;-73
2023/03/31 16:55:16;;;;;;;;;;;12.30;94.60;;;;;;4942764;29;19932;-71
2023/03/31 16:57:41;;;;;;;;;;;12.50;94.30;;;;;;4960239;29;20185;-72
2023/03/31 17:00:19;;;;;;;;;;;12.60;94.10;;;;;;4963128;29;19977;-75
2023/03/31 17:02:45;;;;;;;;;;;12.60;94.10;;;;;;4945448;29;20100;-74
2023/03/31 17:05:10;;;;;;;;;;;12.40;94.30;;;;;;4963000;29;19962;-77
2023/03/31 17:07:44;;;;;;;;;;;12.10;94.50;;;;;;4963650;29;20022;-74
2023/03/31 17:10:11;;;;;;;;;;;12.00;95.00;;;;;;4963116;29;19977;-75
2023/03/31 17:12:37;;;;;;;;;;;11.90;95.20;;;;;;4961135;29;20145;-76
2023/03/31 17:15:09;;;;;;;;;;;11.80;95.40;;;;;;4963370;29;19914;-78
2023/03/31 17:17:35;;;;;;;;;;;11.80;95.00;;;;;;4947847;29;19906;-76
2023/03/31 17:20:05;;;;;;;;;;;11.70;95.40;;;;;;4952783;29;20088;-75
2023/03/31 17:22:32;;;;;;;;;;;11.60;95.80;;;;;;4922002;29;19937;-75
2023/03/31 17:24:57;;;;;;;;;;;11.60;96.00;;;;;;4940114;29;19945;-74
2023/03/31 17:27:27;;;;;;;;;;;11.50;96.00;;;;;;4957895;29;20058;-76
2023/03/31 17:29:53;;;;;;;;;;;11.50;96.50;;;;;;4958273;29;20021;-75
2023/03/31 17:32:19;;;;;;;;;;;11.30;97.20;;;;;;4964246;29;20113;-73
2023/03/31 17:34:47;;;;;;;;;;;11.30;97.30;;;;;;4964212;29;19906;-76
2023/03/31 17:37:17;;;;;;;;;;;11.30;97.70;;;;;;4962452;29;19925;-74
2023/03/31 17:39:43;;;;;;;;;;;11.30;98.10;;;;;;4953246;29;20292;-76
2023/03/31 17:42:12;;;;;;;;;;;11.20;98.40;;;;;;4946553;29;19906;-74
2023/03/31 17:44:38;;;;;;;;;;;11.20;98.60;;;;;;4945828;29;20189;-74
2023/03/31 17:47:04;;;;;;;;;;;11.20;99.00;;;;;;4944892;29;19906;-74
2023/03/31 17:49:31;;;;;;;;;;;11.20;99.40;;;;;;4955045;29;19976;-74
2023/03/31 17:51:58;;;;;;;;;;;11.10;99.60;;;;;;4961435;29;20189;-76
2023/03/31 17:54:24;;;;;;;;;;;11.10;99.90;;;;;;4952463;29;19985;-75
2023/03/31 17:56:50;;;;;;;;;;;11.00;99.90;;;;;;4930859;29;19954;-73
2023/03/31 17:59:16;;;;;;;;;;;11.00;99.90;;;;;;4962013;29;19910;-77
2023/03/31 18:01:48;;;;;;;;;;;11.00;99.90;;;;;;4960644;29;20021;-74
2023/03/31 18:04:14;;;;;;;;;;;11.00;99.90;;;;;;4945162;29;19907;-74
2023/03/31 18:06:43;;;;;;;;;;;11.00;99.90;;;;;;4959146;29;19918;-76
2023/03/31 18:09:10;;;;;;;;;;;11.10;99.90;;;;;;4930268;29;19906;-76
2023/03/31 18:11:39;;;;;;;;;;;11.10;99.90;;;;;;4953486;29;19949;-74
2023/03/31 18:14:05;;;;;;;;;;;11.10;99.90;;;;;;4950743;29;19913;-75
2023/03/31 18:16:30;;;;;;;;;;;11.00;99.90;;;;;;4952342;29;20096;-74
2023/03/31 18:18:56;;;;;;;;;;;10.90;99.90;;;;;;4958830;29;19906;-73
2023/03/31 18:21:23;;;;;;;;;;;10.80;99.90;;;;;;4958243;29;20078;-73
2023/03/31 18:23:53;;;;;;;;;;;10.60;99.90;;;;;;4960028;29;19940;-75
2023/03/31 18:26:21;;;;;;;;;;;10.50;99.90;;;;;;4926938;29;19914;-75
2023/03/31 18:28:46;;;;;;;;;;;10.40;99.90;;;;;;4963378;29;19913;-74
2023/03/31 18:31:13;;;;;;;;;;;10.30;99.90;;;;;;4962042;29;19906;-73
2023/03/31 18:33:39;;;;;;;;;;;10.10;99.90;;;;;;4933994;29;19914;-73
2023/03/31 18:36:06;;;;;;;;;;;10.10;99.90;;;;;;4938199;29;19973;-74
2023/03/31 18:38:32;;;;;;;;;;;10.00;99.90;;;;;;4938190;29;19906;-73
2023/03/31 18:40:57;;;;;;;;;;;10.00;99.90;;;;;;4924082;29;19913;-74
2023/03/31 18:43:24;;;;;;;;;;;9.80;99.90;;;;;;4951577;29;19913;-75
2023/03/31 18:45:51;;;;;;;;;;;9.80;99.90;;;;;;4952985;29;20105;-77
2023/03/31 18:48:17;;;;;;;;;;;9.80;99.90;;;;;;4931787;29;19903;-74
2023/03/31 18:50:44;;;;;;;;;;;10.00;99.90;;;;;;4921005;29;20245;-75
2023/03/31 18:53:10;;;;;;;;;;;10.10;99.90;;;;;;4950800;29;20132;-74
2023/03/31 18:55:36;;;;;;;;;;;10.20;99.90;;;;;;4963544;29;19972;-75
2023/03/31 18:58:02;;;;;;;;;;;10.20;99.90;;;;;;4958625;28;20019;-73
2023/03/31 19:00:28;;;;;;;;;;;10.20;99.90;;;;;;4967289;29;19906;-75
2023/03/31 19:02:54;;;;;;;;;;;10.20;99.90;;;;;;4949002;29;19922;-75
2023/03/31 19:05:19;;;;;;;;;;;10.20;99.90;;;;;;4947503;29;19992;-75
2023/03/31 19:07:46;;;;;;;;;;;10.10;99.90;;;;;;4948455;29;19906;-75
2023/03/31 19:10:12;;;;;;;;;;;10.20;99.90;;;;;;4931167;29;19906;-75
2023/03/31 19:12:37;;;;;;;;;;;10.20;99.90;;;;;;4948334;29;19914;-75
2023/03/31 19:15:04;;;;;;;;;;;10.20;99.90;;;;;;4948077;29;19994;-75
2023/03/31 19:17:30;;;;;;;;;;;10.30;99.90;;;;;;4944554;29;19962;-74